Pungoteague, Virginia
Current Conditions -  °F | °C
As of 12:55 AM on Tuesday 27 Jan 2015 (Local Time) from KMFV Reporting Station
Overcast Overcast  
Wind Chill: 23°   Ceiling: 600
Heat Index: 32°   Visibility: 10mi
Dew Point: 30°   Wind: 12mph
Humidity: 93%   Direction: 340°NNW
Pressure: 29.62"   Gusts: 23mph
Location:  37.63°N, 75.81°W
Report Text: KMFV 270555Z AUTO 34010G20KT 10SM OVC006 00/M01 A2962 RMK AO2 LTG DSNT N P0004
Loading
Personal Weather Stations






























Interactive Weather Map New forecast layout! Learn more

10-Day Weather Forecast

Advertisements
Track Severe Weather on mobile